sensor_id;sensor_type;location;lat;lon;timestamp;pressure;altitude;pressure_sealevel;temperature;humidity
35655;BME280;21773;50.010;19.972;2023-02-13T00:00:18;100740.25;;;8.22;49.78
35655;BME280;21773;50.010;19.972;2023-02-13T00:03:22;100749.69;;;8.26;49.87
35655;BME280;21773;50.010;19.972;2023-02-13T00:06:27;100756.59;;;8.28;49.88
35655;BME280;21773;50.010;19.972;2023-02-13T00:09:30;100755.06;;;8.26;50.03
35655;BME280;21773;50.010;19.972;2023-02-13T00:12:34;100748.88;;;8.25;50.10
35655;BME280;21773;50.010;19.972;2023-02-13T00:15:37;100735.94;;;8.29;50.17
35655;BME280;21773;50.010;19.972;2023-02-13T00:18:41;100731.09;;;8.33;49.95
35655;BME280;21773;50.010;19.972;2023-02-13T00:21:45;100722.88;;;8.34;49.95
35655;BME280;21773;50.010;19.972;2023-02-13T00:24:49;100721.03;;;8.35;50.00
35655;BME280;21773;50.010;19.972;2023-02-13T00:27:53;100727.53;;;8.24;49.88
35655;BME280;21773;50.010;19.972;2023-02-13T00:31:02;100733.69;;;8.16;50.06
35655;BME280;21773;50.010;19.972;2023-02-13T00:34:05;100743.78;;;8.14;50.18
35655;BME280;21773;50.010;19.972;2023-02-13T00:37:10;100729.34;;;8.15;50.17
35655;BME280;21773;50.010;19.972;2023-02-13T00:40:13;100731.00;;;8.16;50.26
35655;BME280;21773;50.010;19.972;2023-02-13T00:43:17;100726.31;;;8.18;50.34
35655;BME280;21773;50.010;19.972;2023-02-13T00:46:21;100724.97;;;8.22;50.40
35655;BME280;21773;50.010;19.972;2023-02-13T00:49:27;100727.88;;;8.29;50.30
35655;BME280;21773;50.010;19.972;2023-02-13T00:52:32;100721.34;;;8.32;50.33
35655;BME280;21773;50.010;19.972;2023-02-13T00:55:35;100720.88;;;8.36;50.26
35655;BME280;21773;50.010;19.972;2023-02-13T00:58:38;100715.19;;;8.39;50.33
35655;BME280;21773;50.010;19.972;2023-02-13T01:01:42;100703.94;;;8.44;50.36
35655;BME280;21773;50.010;19.972;2023-02-13T01:04:45;100708.97;;;8.47;50.30
35655;BME280;21773;50.010;19.972;2023-02-13T01:07:50;100697.22;;;8.48;50.16
35655;BME280;21773;50.010;19.972;2023-02-13T01:10:54;100694.53;;;8.48;50.28
35655;BME280;21773;50.010;19.972;2023-02-13T01:13:58;100684.13;;;8.53;50.38
35655;BME280;21773;50.010;19.972;2023-02-13T01:17:01;100682.28;;;8.53;50.29
35655;BME280;21773;50.010;19.972;2023-02-13T01:20:06;100683.28;;;8.52;50.35
35655;BME280;21773;50.010;19.972;2023-02-13T01:23:11;100684.13;;;8.53;50.31
35655;BME280;21773;50.010;19.972;2023-02-13T01:26:17;100682.94;;;8.47;50.21
35655;BME280;21773;50.010;19.972;2023-02-13T01:29:23;100687.81;;;8.52;50.25
35655;BME280;21773;50.010;19.972;2023-02-13T01:32:27;100674.03;;;8.47;50.30
35655;BME280;21773;50.010;19.972;2023-02-13T01:35:30;100678.22;;;8.41;50.59
35655;BME280;21773;50.010;19.972;2023-02-13T01:38:35;100672.34;;;8.46;50.48
35655;BME280;21773;50.010;19.972;2023-02-13T01:41:38;100665.97;;;8.47;50.41
35655;BME280;21773;50.010;19.972;2023-02-13T01:44:48;100659.75;;;8.38;50.45
35655;BME280;21773;50.010;19.972;2023-02-13T01:47:53;100654.84;;;8.34;50.59
35655;BME280;21773;50.010;19.972;2023-02-13T01:51:00;100666.75;;;8.31;50.68
35655;BME280;21773;50.010;19.972;2023-02-13T01:54:09;100663.25;;;8.31;50.67
35655;BME280;21773;50.010;19.972;2023-02-13T01:57:18;100658.88;;;8.30;50.89
35655;BME280;21773;50.010;19.972;2023-02-13T02:00:24;100648.78;;;8.32;51.08
35655;BME280;21773;50.010;19.972;2023-02-13T02:03:32;100642.75;;;8.38;50.92
35655;BME280;21773;50.010;19.972;2023-02-13T02:06:44;100640.94;;;8.38;51.16
35655;BME280;21773;50.010;19.972;2023-02-13T02:10:01;100632.38;;;8.43;50.92
35655;BME280;21773;50.010;19.972;2023-02-13T02:13:09;100634.22;;;8.42;51.02
35655;BME280;21773;50.010;19.972;2023-02-13T02:16:13;100632.03;;;8.46;51.12
35655;BME280;21773;50.010;19.972;2023-02-13T02:19:25;100631.03;;;8.47;51.26
35655;BME280;21773;50.010;19.972;2023-02-13T02:26:42;100617.94;;;8.52;51.09
35655;BME280;21773;50.010;19.972;2023-02-13T02:30:10;100627.69;;;8.53;51.24
35655;BME280;21773;50.010;19.972;2023-02-13T02:33:31;100626.50;;;8.55;51.17
35655;BME280;21773;50.010;19.972;2023-02-13T02:36:46;100618.06;;;8.50;51.28
35655;BME280;21773;50.010;19.972;2023-02-13T02:40:04;100639.63;;;8.58;51.38
35655;BME280;21773;50.010;19.972;2023-02-13T02:43:19;100640.81;;;8.64;51.13
35655;BME280;21773;50.010;19.972;2023-02-13T02:46:30;100642.66;;;8.63;51.32
35655;BME280;21773;50.010;19.972;2023-02-13T02:49:41;100635.75;;;8.61;51.38
35655;BME280;21773;50.010;19.972;2023-02-13T02:53:16;100633.91;;;8.61;51.39
35655;BME280;21773;50.010;19.972;2023-02-13T02:56:25;100631.56;;;8.58;51.57
35655;BME280;21773;50.010;19.972;2023-02-13T02:59:31;100634.41;;;8.49;51.74
35655;BME280;21773;50.010;19.972;2023-02-13T03:02:53;100643.81;;;8.53;51.85
35655;BME280;21773;50.010;19.972;2023-02-13T03:06:22;100643.16;;;8.59;51.82
35655;BME280;21773;50.010;19.972;2023-02-13T03:09:30;100636.59;;;8.61;51.61
35655;BME280;21773;50.010;19.972;2023-02-13T03:12:53;100634.22;;;8.66;51.65
35655;BME280;21773;50.010;19.972;2023-02-13T03:16:17;100635.94;;;8.67;51.67
35655;BME280;21773;50.010;19.972;2023-02-13T03:19:50;100635.94;;;8.67;51.49
35655;BME280;21773;50.010;19.972;2023-02-13T03:23:19;100636.41;;;8.71;51.74
35655;BME280;21773;50.010;19.972;2023-02-13T03:26:37;100642.00;;;8.69;51.76
35655;BME280;21773;50.010;19.972;2023-02-13T03:30:00;100633.41;;;8.58;51.79
35655;BME280;21773;50.010;19.972;2023-02-13T03:33:22;100639.13;;;8.55;52.06
35655;BME280;21773;50.010;19.972;2023-02-13T03:36:36;100644.31;;;8.48;52.39
35655;BME280;21773;50.010;19.972;2023-02-13T03:40:07;100645.28;;;8.39;52.52
35655;BME280;21773;50.010;19.972;2023-02-13T03:43:14;100645.25;;;8.31;52.57
35655;BME280;21773;50.010;19.972;2023-02-13T03:46:19;100658.16;;;8.27;53.02
35655;BME280;21773;50.010;19.972;2023-02-13T03:49:26;100657.16;;;8.20;53.33
35655;BME280;21773;50.010;19.972;2023-02-13T03:52:53;100655.94;;;8.15;53.54
35655;BME280;21773;50.010;19.972;2023-02-13T03:56:01;100654.91;;;8.08;53.95
35655;BME280;21773;50.010;19.972;2023-02-13T03:59:27;100653.06;;;8.08;54.03
35655;BME280;21773;50.010;19.972;2023-02-13T04:02:33;100661.63;;;8.04;54.15
35655;BME280;21773;50.010;19.972;2023-02-13T04:05:43;100666.13;;;8.03;54.21
35655;BME280;21773;50.010;19.972;2023-02-13T04:08:49;100650.66;;;7.97;54.74
35655;BME280;21773;50.010;19.972;2023-02-13T04:11:57;100658.38;;;7.92;54.90
35655;BME280;21773;50.010;19.972;2023-02-13T04:15:09;100649.28;;;7.85;55.38
35655;BME280;21773;50.010;19.972;2023-02-13T04:18:19;100657.38;;;7.93;55.83
35655;BME280;21773;50.010;19.972;2023-02-13T04:21:23;100662.09;;;7.91;56.30
35655;BME280;21773;50.010;19.972;2023-02-13T04:24:27;100637.84;;;7.83;56.72
35655;BME280;21773;50.010;19.972;2023-02-13T04:27:32;100656.00;;;7.89;57.05
35655;BME280;21773;50.010;19.972;2023-02-13T04:30:36;100654.69;;;7.93;56.98
35655;BME280;21773;50.010;19.972;2023-02-13T04:33:39;100649.16;;;7.95;57.70
35655;BME280;21773;50.010;19.972;2023-02-13T04:36:43;100648.31;;;7.94;58.60
35655;BME280;21773;50.010;19.972;2023-02-13T04:39:46;100656.38;;;7.94;58.64
35655;BME280;21773;50.010;19.972;2023-02-13T04:42:51;100648.31;;;7.94;59.68
35655;BME280;21773;50.010;19.972;2023-02-13T04:45:54;100648.47;;;7.93;59.73
35655;BME280;21773;50.010;19.972;2023-02-13T04:48:57;100639.41;;;7.94;60.28
35655;BME280;21773;50.010;19.972;2023-02-13T04:52:01;100656.00;;;7.89;61.00
35655;BME280;21773;50.010;19.972;2023-02-13T04:55:05;100654.69;;;7.93;61.29
35655;BME280;21773;50.010;19.972;2023-02-13T04:58:09;100653.19;;;7.91;61.54
35655;BME280;21773;50.010;19.972;2023-02-13T05:01:14;100655.38;;;7.95;61.76
35655;BME280;21773;50.010;19.972;2023-02-13T05:04:18;100656.88;;;7.98;61.76
35655;BME280;21773;50.010;19.972;2023-02-13T05:07:21;100657.22;;;7.95;62.02
35655;BME280;21773;50.010;19.972;2023-02-13T05:10:25;100653.53;;;7.96;62.60
35655;BME280;21773;50.010;19.972;2023-02-13T05:13:30;100651.03;;;8.02;62.51
35655;BME280;21773;50.010;19.972;2023-02-13T05:16:33;100653.91;;;8.09;62.58
35655;BME280;21773;50.010;19.972;2023-02-13T05:19:36;100654.91;;;8.08;62.87
35655;BME280;21773;50.010;19.972;2023-02-13T05:22:43;100654.78;;;8.17;62.61
35655;BME280;21773;50.010;19.972;2023-02-13T05:26:04;100652.13;;;8.25;62.31
35655;BME280;21773;50.010;19.972;2023-02-13T05:29:10;100653.50;;;8.30;62.29
35655;BME280;21773;50.010;19.972;2023-02-13T05:32:23;100658.16;;;8.27;62.60
35655;BME280;21773;50.010;19.972;2023-02-13T05:35:27;100652.13;;;8.25;62.85
35655;BME280;21773;50.010;19.972;2023-02-13T05:38:30;100648.78;;;8.32;62.84
35655;BME280;21773;50.010;19.972;2023-02-13T05:41:34;100648.41;;;8.26;63.14
35655;BME280;21773;50.010;19.972;2023-02-13T05:44:38;100654.47;;;8.20;63.37
35655;BME280;21773;50.010;19.972;2023-02-13T05:47:42;100653.28;;;8.23;63.35
35655;BME280;21773;50.010;19.972;2023-02-13T05:50:45;100659.72;;;8.30;63.31
35655;BME280;21773;50.010;19.972;2023-02-13T05:53:49;100664.13;;;8.39;62.83
35655;BME280;21773;50.010;19.972;2023-02-13T05:56:52;100673.72;;;8.50;62.92
35655;BME280;21773;50.010;19.972;2023-02-13T05:59:57;100679.44;;;8.55;62.67
35655;BME280;21773;50.010;19.972;2023-02-13T06:03:00;100674.88;;;8.55;62.67
35655;BME280;21773;50.010;19.972;2023-02-13T06:06:04;100675.22;;;8.60;62.27
35655;BME280;21773;50.010;19.972;2023-02-13T06:09:07;100678.44;;;8.64;62.36
35655;BME280;21773;50.010;19.972;2023-02-13T06:12:11;100674.06;;;8.63;62.37
35655;BME280;21773;50.010;19.972;2023-02-13T06:15:16;100674.22;;;8.61;62.61
35655;BME280;21773;50.010;19.972;2023-02-13T06:18:19;100646.31;;;8.46;62.51
35655;BME280;21773;50.010;19.972;2023-02-13T06:21:22;100656.41;;;8.60;62.73
35655;BME280;21773;50.010;19.972;2023-02-13T06:24:26;100669.50;;;8.55;63.00
35655;BME280;21773;50.010;19.972;2023-02-13T06:27:30;100661.97;;;8.67;62.67
35655;BME280;21773;50.010;19.972;2023-02-13T06:30:35;100673.06;;;8.72;62.68
35655;BME280;21773;50.010;19.972;2023-02-13T06:33:38;100670.53;;;8.70;62.76
35655;BME280;21773;50.010;19.972;2023-02-13T06:36:41;100675.25;;;8.68;62.97
35655;BME280;21773;50.010;19.972;2023-02-13T06:39:44;100682.31;;;8.69;62.92
35655;BME280;21773;50.010;19.972;2023-02-13T06:42:48;100681.97;;;8.64;63.27
35655;BME280;21773;50.010;19.972;2023-02-13T06:45:52;100686.50;;;8.72;63.20
35655;BME280;21773;50.010;19.972;2023-02-13T06:48:56;100689.91;;;8.82;62.79
35655;BME280;21773;50.010;19.972;2023-02-13T06:51:59;100696.31;;;8.89;62.85
35655;BME280;21773;50.010;19.972;2023-02-13T06:55:03;100690.91;;;8.97;62.48
35655;BME280;21773;50.010;19.972;2023-02-13T06:58:06;100687.72;;;9.02;62.54
35655;BME280;21773;50.010;19.972;2023-02-13T07:01:11;100692.25;;;9.09;62.50
35655;BME280;21773;50.010;19.972;2023-02-13T07:04:14;100703.03;;;9.18;62.28
35655;BME280;21773;50.010;19.972;2023-02-13T07:07:17;100697.97;;;9.23;62.03
35655;BME280;21773;50.010;19.972;2023-02-13T07:10:21;100700.66;;;9.31;61.77
35655;BME280;21773;50.010;19.972;2023-02-13T07:13:24;100704.19;;;9.39;61.67
35655;BME280;21773;50.010;19.972;2023-02-13T07:16:29;100698.13;;;9.37;61.79
35655;BME280;21773;50.010;19.972;2023-02-13T07:19:32;100696.44;;;9.44;61.54
35655;BME280;21773;50.010;19.972;2023-02-13T07:22:35;100694.25;;;9.56;61.43
35655;BME280;21773;50.010;19.972;2023-02-13T07:25:39;100692.72;;;9.53;61.29
35655;BME280;21773;50.010;19.972;2023-02-13T07:28:42;100697.09;;;9.54;61.24
35655;BME280;21773;50.010;19.972;2023-02-13T07:31:47;100706.00;;;9.55;61.39
35655;BME280;21773;50.010;19.972;2023-02-13T07:34:50;100683.44;;;9.64;61.05
35655;BME280;21773;50.010;19.972;2023-02-13T07:38:03;100690.84;;;9.70;60.94
35655;BME280;21773;50.010;19.972;2023-02-13T07:41:07;100687.47;;;9.76;60.69
35655;BME280;21773;50.010;19.972;2023-02-13T07:44:11;100692.00;;;9.76;60.72
35655;BME280;21773;50.010;19.972;2023-02-13T07:47:15;100686.94;;;9.73;60.87
35655;BME280;21773;50.010;19.972;2023-02-13T07:50:21;100686.13;;;9.72;61.06
35655;BME280;21773;50.010;19.972;2023-02-13T07:53:24;100691.00;;;9.69;61.29
35655;BME280;21773;50.010;19.972;2023-02-13T07:56:27;100664.25;;;9.67;61.08
35655;BME280;21773;50.010;19.972;2023-02-13T07:59:39;100687.78;;;9.81;61.00
35655;BME280;21773;50.010;19.972;2023-02-13T08:02:49;100685.09;;;9.73;61.28
35655;BME280;21773;50.010;19.972;2023-02-13T08:05:53;100677.53;;;9.69;61.57
35655;BME280;21773;50.010;19.972;2023-02-13T08:08:56;100672.47;;;9.74;61.22
35655;BME280;21773;50.010;19.972;2023-02-13T08:12:17;100676.00;;;9.74;61.43
35655;BME280;21773;50.010;19.972;2023-02-13T08:15:21;100680.38;;;9.75;61.31
35655;BME280;21773;50.010;19.972;2023-02-13T08:18:26;100678.84;;;9.81;61.43
35655;BME280;21773;50.010;19.972;2023-02-13T08:21:30;100679.50;;;9.83;61.19
35655;BME280;21773;50.010;19.972;2023-02-13T08:24:33;100675.66;;;9.85;60.94
35655;BME280;21773;50.010;19.972;2023-02-13T08:27:37;100676.44;;;9.94;61.00
35655;BME280;21773;50.010;19.972;2023-02-13T08:30:41;100675.81;;;9.84;60.93
35655;BME280;21773;50.010;19.972;2023-02-13T08:33:46;100670.75;;;9.89;60.95
35655;BME280;21773;50.010;19.972;2023-02-13T08:36:54;100661.34;;;9.85;60.73
35655;BME280;21773;50.010;19.972;2023-02-13T08:39:58;100687.50;;;10.07;60.66
35655;BME280;21773;50.010;19.972;2023-02-13T08:43:04;100678.53;;;10.23;60.51
35655;BME280;21773;50.010;19.972;2023-02-13T08:46:09;100679.66;;;10.36;60.08
35655;BME280;21773;50.010;19.972;2023-02-13T08:49:14;100663.69;;;10.27;59.75
35655;BME280;21773;50.010;19.972;2023-02-13T08:52:17;100672.38;;;10.45;59.40
35655;BME280;21773;50.010;19.972;2023-02-13T08:55:20;100665.25;;;10.52;59.00
35655;BME280;21773;50.010;19.972;2023-02-13T08:58:24;100672.25;;;10.61;58.82
35655;BME280;21773;50.010;19.972;2023-02-13T09:01:27;100670.47;;;10.76;58.20
35655;BME280;21773;50.010;19.972;2023-02-13T09:04:32;100667.97;;;10.98;58.07
35655;BME280;21773;50.010;19.972;2023-02-13T09:07:36;100669.56;;;11.07;57.51
35655;BME280;21773;50.010;19.972;2023-02-13T09:10:39;100660.31;;;11.01;57.11
35655;BME280;21773;50.010;19.972;2023-02-13T09:13:44;100664.84;;;11.09;56.52
35655;BME280;21773;50.010;19.972;2023-02-13T09:16:49;100653.88;;;11.25;56.16
35655;BME280;21773;50.010;19.972;2023-02-13T09:19:53;100659.44;;;11.61;55.41
35655;BME280;21773;50.010;19.972;2023-02-13T09:22:57;100663.00;;;11.76;54.58
35655;BME280;21773;50.010;19.972;2023-02-13T09:26:01;100644.91;;;11.62;54.55
35655;BME280;21773;50.010;19.972;2023-02-13T09:29:05;100656.28;;;11.72;54.31
35655;BME280;21773;50.010;19.972;2023-02-13T09:32:08;100666.44;;;11.85;54.29
35655;BME280;21773;50.010;19.972;2023-02-13T09:35:13;100662.16;;;11.90;53.54
35655;BME280;21773;50.010;19.972;2023-02-13T09:38:17;100664.69;;;12.06;53.29
35655;BME280;21773;50.010;19.972;2023-02-13T09:41:23;100662.50;;;12.31;53.00
35655;BME280;21773;50.010;19.972;2023-02-13T09:44:34;100658.88;;;12.60;52.18
35655;BME280;21773;50.010;19.972;2023-02-13T09:47:41;100657.97;;;12.74;51.18
35655;BME280;21773;50.010;19.972;2023-02-13T09:50:46;100658.09;;;13.09;50.30
35655;BME280;21773;50.010;19.972;2023-02-13T09:53:52;100652.91;;;13.35;49.41
35655;BME280;21773;50.010;19.972;2023-02-13T09:56:59;100664.13;;;13.53;49.09
35655;BME280;21773;50.010;19.972;2023-02-13T10:00:06;100666.44;;;13.91;48.45
35655;BME280;21773;50.010;19.972;2023-02-13T10:03:27;100669.28;;;14.17;47.38
35655;BME280;21773;50.010;19.972;2023-02-13T10:06:35;100664.25;;;14.07;46.51
35655;BME280;21773;50.010;19.972;2023-02-13T10:09:56;100655.03;;;14.02;46.91
35655;BME280;21773;50.010;19.972;2023-02-13T10:13:13;100654.31;;;13.86;47.00
35655;BME280;21773;50.010;19.972;2023-02-13T10:16:27;100632.69;;;13.65;47.17
35655;BME280;21773;50.010;19.972;2023-02-13T10:19:36;100632.06;;;14.04;46.09
35655;BME280;21773;50.010;19.972;2023-02-13T10:22:48;100626.75;;;14.30;45.71
35655;BME280;21773;50.010;19.972;2023-02-13T10:25:57;100622.78;;;14.26;45.32
35655;BME280;21773;50.010;19.972;2023-02-13T10:29:06;100615.88;;;14.24;45.87
35655;BME280;21773;50.010;19.972;2023-02-13T10:32:28;100620.19;;;14.05;45.95
35655;BME280;21773;50.010;19.972;2023-02-13T10:35:33;100617.59;;;13.84;46.02
35655;BME280;21773;50.010;19.972;2023-02-13T10:38:40;100606.97;;;13.89;46.38
35655;BME280;21773;50.010;19.972;2023-02-13T10:41:49;100601.63;;;14.02;46.36
35655;BME280;21773;50.010;19.972;2023-02-13T10:45:08;100597.13;;;14.29;45.39
35655;BME280;21773;50.010;19.972;2023-02-13T10:48:34;100584.88;;;14.46;44.93
35655;BME280;21773;50.010;19.972;2023-02-13T10:51:44;100592.63;;;14.62;45.00
35655;BME280;21773;50.010;19.972;2023-02-13T10:55:13;100581.75;;;14.62;44.63
35655;BME280;21773;50.010;19.972;2023-02-13T10:58:22;100589.28;;;14.67;44.27
35655;BME280;21773;50.010;19.972;2023-02-13T11:01:32;100588.88;;;14.50;44.31
35655;BME280;21773;50.010;19.972;2023-02-13T11:04:42;100588.34;;;14.20;45.16
35655;BME280;21773;50.010;19.972;2023-02-13T11:07:46;100592.56;;;13.82;46.08
35655;BME280;21773;50.010;19.972;2023-02-13T11:10:52;100576.56;;;13.59;47.30
35655;BME280;21773;50.010;19.972;2023-02-13T11:14:08;100573.31;;;13.36;47.48
35655;BME280;21773;50.010;19.972;2023-02-13T11:17:16;100581.72;;;12.92;48.61
35655;BME280;21773;50.010;19.972;2023-02-13T11:20:26;100574.69;;;12.76;49.52
35655;BME280;21773;50.010;19.972;2023-02-13T11:23:36;100580.50;;;12.73;49.67
35655;BME280;21773;50.010;19.972;2023-02-13T11:26:42;100576.47;;;12.63;49.84
35655;BME280;21773;50.010;19.972;2023-02-13T11:29:54;100582.63;;;12.78;49.54
35655;BME280;21773;50.010;19.972;2023-02-13T11:33:00;100578.41;;;12.69;49.33
35655;BME280;21773;50.010;19.972;2023-02-13T11:36:07;100587.03;;;12.79;48.96
35655;BME280;21773;50.010;19.972;2023-02-13T11:39:17;100582.81;;;12.76;48.77
35655;BME280;21773;50.010;19.972;2023-02-13T11:42:28;100580.59;;;12.58;48.82
35655;BME280;21773;50.010;19.972;2023-02-13T11:45:32;100565.34;;;12.51;48.71
35655;BME280;21773;50.010;19.972;2023-02-13T11:48:36;100582.88;;;12.62;48.61
35655;BME280;21773;50.010;19.972;2023-02-13T11:51:42;100579.47;;;12.53;48.78
35655;BME280;21773;50.010;19.972;2023-02-13T11:54:54;100573.81;;;12.48;49.43
35655;BME280;21773;50.010;19.972;2023-02-13T11:58:01;100573.56;;;12.43;49.82
35655;BME280;21773;50.010;19.972;2023-02-13T12:01:24;100553.97;;;12.20;49.98
35655;BME280;21773;50.010;19.972;2023-02-13T12:04:29;100571.34;;;12.10;50.60
35655;BME280;21773;50.010;19.972;2023-02-13T12:07:33;100575.25;;;12.08;51.04
35655;BME280;21773;50.010;19.972;2023-02-13T12:10:37;100545.19;;;11.96;51.60
35655;BME280;21773;50.010;19.972;2023-02-13T12:13:42;100554.69;;;12.07;52.06
35655;BME280;21773;50.010;19.972;2023-02-13T12:16:49;100547.59;;;12.06;52.70
35655;BME280;21773;50.010;19.972;2023-02-13T12:19:53;100552.06;;;11.99;52.54
35655;BME280;21773;50.010;19.972;2023-02-13T12:23:03;100546.28;;;12.02;52.08
35655;BME280;21773;50.010;19.972;2023-02-13T12:26:19;100544.03;;;12.05;52.26
35655;BME280;21773;50.010;19.972;2023-02-13T12:29:45;100553.31;;;11.96;52.45
35655;BME280;21773;50.010;19.972;2023-02-13T12:32:58;100549.22;;;11.86;52.69
35655;BME280;21773;50.010;19.972;2023-02-13T12:36:15;100551.66;;;11.81;53.16
35655;BME280;21773;50.010;19.972;2023-02-13T12:39:25;100530.41;;;11.63;53.23
35655;BME280;21773;50.010;19.972;2023-02-13T12:42:42;100527.59;;;11.86;53.07
35655;BME280;21773;50.010;19.972;2023-02-13T12:45:57;100527.69;;;11.92;53.01
35655;BME280;21773;50.010;19.972;2023-02-13T12:49:18;100517.69;;;11.93;52.67
35655;BME280;21773;50.010;19.972;2023-02-13T12:52:39;100528.53;;;12.14;52.16
35655;BME280;21773;50.010;19.972;2023-02-13T12:55:56;100528.84;;;12.04;52.29
35655;BME280;21773;50.010;19.972;2023-02-13T12:59:07;100536.50;;;12.01;52.41
35655;BME280;21773;50.010;19.972;2023-02-13T13:02:31;100541.81;;;11.94;52.39
35655;BME280;21773;50.010;19.972;2023-02-13T13:05:57;100536.94;;;12.04;52.35
35655;BME280;21773;50.010;19.972;2023-02-13T13:09:34;100532.50;;;11.97;52.43
35655;BME280;21773;50.010;19.972;2023-02-13T13:12:50;100534.91;;;12.06;52.30
35655;BME280;21773;50.010;19.972;2023-02-13T13:16:04;100533.41;;;12.04;52.40
35655;BME280;21773;50.010;19.972;2023-02-13T13:19:21;100531.41;;;11.91;52.55
35655;BME280;21773;50.010;19.972;2023-02-13T13:22:32;100531.81;;;11.73;53.44
35655;BME280;21773;50.010;19.972;2023-02-13T13:25:44;100520.16;;;11.73;53.42
35655;BME280;21773;50.010;19.972;2023-02-13T13:28:52;100528.91;;;11.75;53.82
35655;BME280;21773;50.010;19.972;2023-02-13T13:32:01;100532.16;;;11.70;54.29
35655;BME280;21773;50.010;19.972;2023-02-13T13:35:11;100526.41;;;11.73;54.31
35655;BME280;21773;50.010;19.972;2023-02-13T13:38:24;100527.59;;;11.71;54.95
35655;BME280;21773;50.010;19.972;2023-02-13T13:41:39;100524.34;;;11.76;54.69
35655;BME280;21773;50.010;19.972;2023-02-13T13:45:07;100531.63;;;11.75;55.14
35655;BME280;21773;50.010;19.972;2023-02-13T13:48:44;100532.91;;;11.79;55.48
35655;BME280;21773;50.010;19.972;2023-02-13T13:52:08;100525.25;;;11.68;55.93
35655;BME280;21773;50.010;19.972;2023-02-13T13:59:03;100521.25;;;11.64;56.54
35655;BME280;21773;50.010;19.972;2023-02-13T14:02:26;100517.25;;;11.60;56.87
35655;BME280;21773;50.010;19.972;2023-02-13T14:05:31;100524.34;;;11.61;57.03
35655;BME280;21773;50.010;19.972;2023-02-13T14:08:57;100512.53;;;11.62;57.28
35655;BME280;21773;50.010;19.972;2023-02-13T14:12:44;100513.66;;;11.53;57.78
35655;BME280;21773;50.010;19.972;2023-02-13T14:15:51;100518.66;;;11.56;58.01
35655;BME280;21773;50.010;19.972;2023-02-13T14:18:56;100512.88;;;11.59;57.83
35655;BME280;21773;50.010;19.972;2023-02-13T14:25:37;100495.09;;;11.50;58.09
35655;BME280;21773;50.010;19.972;2023-02-13T14:28:42;100484.63;;;11.25;58.87
35655;BME280;21773;50.010;19.972;2023-02-13T14:31:56;100491.50;;;11.28;58.92
35655;BME280;21773;50.010;19.972;2023-02-13T14:35:05;100485.91;;;11.29;59.28
35655;BME280;21773;50.010;19.972;2023-02-13T14:38:22;100487.59;;;11.30;59.55
35655;BME280;21773;50.010;19.972;2023-02-13T14:41:56;100483.13;;;11.23;59.75
35655;BME280;21773;50.010;19.972;2023-02-13T14:45:02;100472.63;;;11.28;59.88
35655;BME280;21773;50.010;19.972;2023-02-13T14:48:12;100463.69;;;11.13;60.23
35655;BME280;21773;50.010;19.972;2023-02-13T14:51:20;100449.25;;;11.06;60.63
35655;BME280;21773;50.010;19.972;2023-02-13T14:54:32;100451.78;;;10.93;61.53
35655;BME280;21773;50.010;19.972;2023-02-13T14:57:42;100447.78;;;11.03;61.41
35655;BME280;21773;50.010;19.972;2023-02-13T15:00:52;100455.94;;;11.10;61.19
35655;BME280;21773;50.010;19.972;2023-02-13T15:04:00;100454.56;;;11.14;61.16
35655;BME280;21773;50.010;19.972;2023-02-13T15:07:13;100453.16;;;11.18;61.29
35655;BME280;21773;50.010;19.972;2023-02-13T15:10:32;100445.81;;;11.12;61.22
35655;BME280;21773;50.010;19.972;2023-02-13T15:13:39;100431.19;;;11.06;61.48
35655;BME280;21773;50.010;19.972;2023-02-13T15:16:44;100425.16;;;11.19;61.20
35655;BME280;21773;50.010;19.972;2023-02-13T15:19:51;100430.44;;;11.12;61.16
35655;BME280;21773;50.010;19.972;2023-02-13T15:22:56;100435.00;;;11.12;61.18
35655;BME280;21773;50.010;19.972;2023-02-13T15:26:01;100435.28;;;11.02;61.58
35655;BME280;21773;50.010;19.972;2023-02-13T15:29:14;100414.00;;;10.93;61.51
35655;BME280;21773;50.010;19.972;2023-02-13T15:32:34;100430.63;;;11.11;61.10
35655;BME280;21773;50.010;19.972;2023-02-13T15:35:39;100431.84;;;11.08;61.71
35655;BME280;21773;50.010;19.972;2023-02-13T15:38:42;100444.97;;;11.11;61.25
35655;BME280;21773;50.010;19.972;2023-02-13T15:41:47;100449.53;;;11.11;61.34
35655;BME280;21773;50.010;19.972;2023-02-13T15:44:56;100448.41;;;11.05;61.34
35655;BME280;21773;50.010;19.972;2023-02-13T15:48:00;100458.66;;;11.10;60.70
35655;BME280;21773;50.010;19.972;2023-02-13T15:51:04;100453.53;;;11.15;60.60
35655;BME280;21773;50.010;19.972;2023-02-13T15:54:22;100455.03;;;11.17;60.74
35655;BME280;21773;50.010;19.972;2023-02-13T15:57:26;100461.16;;;11.26;60.33
35655;BME280;21773;50.010;19.972;2023-02-13T16:00:34;100471.78;;;11.27;60.31
35655;BME280;21773;50.010;19.972;2023-02-13T16:03:39;100463.84;;;11.26;60.35
35655;BME280;21773;50.010;19.972;2023-02-13T16:06:44;100460.03;;;11.20;60.29
35655;BME280;21773;50.010;19.972;2023-02-13T16:09:48;100451.75;;;11.22;60.26
35655;BME280;21773;50.010;19.972;2023-02-13T16:12:55;100463.13;;;11.17;59.94
35655;BME280;21773;50.010;19.972;2023-02-13T16:16:06;100471.03;;;11.19;59.90
35655;BME280;21773;50.010;19.972;2023-02-13T16:19:30;100467.00;;;11.15;59.93
35655;BME280;21773;50.010;19.972;2023-02-13T16:22:37;100474.09;;;11.16;60.04
35655;BME280;21773;50.010;19.972;2023-02-13T16:25:41;100470.66;;;11.22;59.66
35655;BME280;21773;50.010;19.972;2023-02-13T16:28:45;100478.19;;;11.26;59.40
35655;BME280;21773;50.010;19.972;2023-02-13T16:31:51;100481.91;;;11.25;59.12